createdAt,value
2023-11-30T07:20:17.122Z,4.75
2023-11-30T07:23:18.857Z,5.10
2023-11-30T07:26:21.038Z,5.22
2023-11-30T07:29:26.364Z,4.95
2023-11-30T07:32:28.778Z,5.90
2023-11-30T07:35:30.548Z,5.65
2023-11-30T07:38:32.407Z,5.57
2023-11-30T07:41:34.171Z,4.45
2023-11-30T07:44:36.539Z,6.75
2023-11-30T07:47:38.624Z,5.55
2023-11-30T07:50:41.427Z,4.72
2023-11-30T07:53:43.254Z,7.75
2023-11-30T07:56:45.147Z,5.35
2023-11-30T07:59:48.841Z,5.22
2023-11-30T08:02:50.639Z,5.78
2023-11-30T08:05:52.379Z,5.30
2023-11-30T08:08:54.138Z,6.03
2023-11-30T08:11:55.835Z,6.65
2023-11-30T08:14:57.524Z,7.43
2023-11-30T08:17:59.302Z,8.57
2023-11-30T08:21:03.469Z,7.53
2023-11-30T08:24:05.623Z,6.90
2023-11-30T08:27:07.535Z,6.80
2023-11-30T08:30:13.194Z,7.25
2023-11-30T08:33:15.100Z,6.53
2023-11-30T08:36:17.082Z,8.52
2023-11-30T08:39:25.125Z,5.80
2023-11-30T08:42:29.967Z,5.97
2023-11-30T08:45:33.328Z,7.15
2023-11-30T08:48:35.480Z,4.80
2023-11-30T08:51:37.455Z,7.35
2023-11-30T08:54:39.557Z,5.93
2023-11-30T08:57:43.453Z,4.40
2023-11-30T09:00:46.533Z,5.57
2023-11-30T09:03:48.311Z,7.65
2023-11-30T09:06:50.211Z,6.72
2023-11-30T09:09:52.122Z,6.05
2023-11-30T09:12:53.976Z,6.78
2023-11-30T09:15:56.094Z,6.85
2023-11-30T09:18:57.979Z,5.65
2023-11-30T09:21:59.689Z,7.15
2023-11-30T09:25:01.502Z,5.90
2023-11-30T09:28:03.789Z,7.13
2023-11-30T09:31:07.090Z,7.72
2023-11-30T09:34:10.261Z,5.40
2023-11-30T09:37:12.070Z,6.88
2023-11-30T09:40:14.670Z,5.88
2023-11-30T09:43:23.287Z,6.68
2023-11-30T09:46:25.022Z,5.45
2023-11-30T09:49:26.855Z,5.05
2023-11-30T09:52:29.483Z,6.05
2023-11-30T09:55:31.937Z,6.63
2023-11-30T09:58:34.557Z,7.55
2023-11-30T10:01:36.450Z,5.55
2023-11-30T10:04:41.088Z,9.20
2023-11-30T10:07:43.986Z,7.43
2023-11-30T10:10:47.022Z,7.50
2023-11-30T10:13:48.797Z,9.63
2023-11-30T10:16:50.722Z,7.00
2023-11-30T10:19:52.729Z,8.15
2023-11-30T10:22:54.597Z,8.48
2023-11-30T10:25:57.121Z,8.27
2023-11-30T10:28:59.237Z,7.53
2023-11-30T10:32:03.345Z,8.23
2023-11-30T10:35:08.861Z,7.00
2023-11-30T10:38:16.663Z,7.45
2023-11-30T10:41:22.924Z,8.27
2023-11-30T10:44:29.283Z,7.22
2023-11-30T10:47:31.652Z,9.43
2023-11-30T10:50:33.725Z,5.95
2023-11-30T10:54:05.759Z,8.75
2023-11-30T10:57:08.033Z,7.45
2023-11-30T11:00:16.252Z,10.73
2023-11-30T11:03:18.118Z,10.05
2023-11-30T11:06:25.948Z,8.68
2023-11-30T11:09:27.788Z,8.55
2023-11-30T11:12:34.838Z,7.55
2023-11-30T11:15:36.593Z,8.35
2023-11-30T11:18:41.730Z,9.32
2023-11-30T11:21:43.564Z,7.40
2023-11-30T11:24:47.201Z,8.00
2023-11-30T11:27:49.654Z,7.25
2023-11-30T11:30:51.684Z,6.47
2023-11-30T11:33:53.579Z,8.52
2023-11-30T11:36:55.545Z,7.60
2023-11-30T11:39:57.926Z,8.88
2023-11-30T11:43:00.494Z,9.55
2023-11-30T11:46:03.473Z,8.50
2023-11-30T11:49:05.236Z,8.30
2023-11-30T11:52:06.980Z,8.18
2023-11-30T11:55:09.907Z,7.95
2023-11-30T11:58:13.056Z,9.02
2023-11-30T12:01:14.906Z,7.80
2023-11-30T12:04:35.394Z,8.15
2023-11-30T12:07:50.907Z,5.72
2023-11-30T12:10:53.006Z,6.72
2023-11-30T12:13:55.240Z,8.98
2023-11-30T12:16:57.500Z,7.03
2023-11-30T12:19:59.346Z,7.50
2023-11-30T12:23:01.969Z,6.65
2023-11-30T12:26:03.861Z,7.20
2023-11-30T12:29:05.749Z,7.70
2023-11-30T12:32:07.590Z,7.18
2023-11-30T12:35:09.605Z,6.38
2023-11-30T12:38:12.672Z,7.05
2023-11-30T12:41:14.776Z,7.60
2023-11-30T12:44:17.261Z,7.50
2023-11-30T12:47:19.273Z,6.75
2023-11-30T12:50:21.170Z,7.43
2023-11-30T12:53:22.939Z,7.28
2023-11-30T12:56:24.825Z,6.90
2023-11-30T12:59:26.552Z,6.28
2023-11-30T13:02:28.906Z,5.68
2023-11-30T13:05:30.899Z,6.82
2023-11-30T13:08:33.017Z,5.00
2023-11-30T13:11:35.237Z,5.93
2023-11-30T13:14:36.997Z,6.03
2023-11-30T13:17:39.517Z,6.57
2023-11-30T13:20:44.332Z,7.05
2023-11-30T13:23:46.066Z,5.18
2023-11-30T13:26:49.257Z,5.50
2023-11-30T13:29:51.126Z,5.35
2023-11-30T13:32:53.943Z,6.13
2023-11-30T13:35:55.744Z,5.43
2023-11-30T13:38:57.581Z,4.75
2023-11-30T13:41:59.368Z,5.72
2023-11-30T13:45:02.330Z,5.10
2023-11-30T13:48:04.582Z,5.15
2023-11-30T13:51:07.418Z,6.18
2023-11-30T13:54:09.141Z,4.20
2023-11-30T13:57:11.112Z,4.13
2023-11-30T14:00:13.979Z,3.80
2023-11-30T14:03:17.349Z,3.58
2023-11-30T14:06:19.503Z,3.67
2023-11-30T14:09:27.595Z,3.45
2023-11-30T14:12:29.600Z,2.28
2023-11-30T14:15:34.747Z,2.22
2023-11-30T14:18:36.522Z,2.05
2023-11-30T14:21:38.282Z,2.65
2023-11-30T14:24:42.927Z,1.00
2023-11-30T14:27:48.658Z,1.80
2023-11-30T14:30:50.703Z,1.92
2023-11-30T14:33:52.609Z,1.65
2023-11-30T14:36:54.638Z,1.23
2023-11-30T14:39:56.505Z,2.20
2023-11-30T14:42:58.340Z,1.20
2023-11-30T14:46:00.324Z,1.48
2023-11-30T14:49:02.338Z,0.60
2023-11-30T14:52:04.725Z,1.35
2023-11-30T14:55:07.420Z,1.50
2023-11-30T14:58:10.631Z,0.75
2023-11-30T15:01:14.453Z,1.20
2023-11-30T15:04:16.851Z,1.63
2023-11-30T15:07:19.171Z,2.20
2023-11-30T15:10:21.922Z,1.35
2023-11-30T15:13:23.722Z,1.42
2023-11-30T15:16:26.861Z,1.38
2023-11-30T15:19:28.625Z,2.22
2023-11-30T15:22:30.515Z,1.50
2023-11-30T15:25:32.624Z,1.88
2023-11-30T15:28:35.289Z,1.13
2023-11-30T15:31:37.224Z,1.98
2023-11-30T15:34:39.040Z,2.20
2023-11-30T15:37:42.738Z,2.08
2023-11-30T15:43:46.227Z,1.98
2023-11-30T15:46:48.269Z,1.48
2023-11-30T15:49:50.067Z,1.45
2023-11-30T15:52:52.340Z,0.85
2023-11-30T15:55:54.078Z,1.27
2023-11-30T15:58:56.028Z,1.80
2023-11-30T16:01:57.848Z,1.20
2023-11-30T16:04:59.617Z,1.25
2023-11-30T16:08:02.585Z,1.15
2023-11-30T16:11:04.810Z,0.73
2023-11-30T16:14:06.624Z,1.10
2023-11-30T16:17:28.757Z,1.38
2023-11-30T16:20:30.521Z,1.42
2023-11-30T16:23:32.263Z,1.35
2023-11-30T16:27:13.085Z,1.15
2023-11-30T16:30:14.888Z,1.38
2023-11-30T16:33:16.707Z,2.13
2023-11-30T16:36:19.399Z,1.70
2023-11-30T16:39:23.841Z,1.30
2023-11-30T16:42:26.469Z,1.20
2023-11-30T16:45:28.990Z,1.55
2023-11-30T16:48:55.721Z,0.73
2023-11-30T16:51:59.906Z,1.92
2023-11-30T16:55:02.630Z,1.73
2023-11-30T16:58:30.427Z,1.30
2023-11-30T17:01:32.820Z,1.20
2023-11-30T17:04:34.639Z,1.50
2023-11-30T17:11:59.749Z,1.27
2023-11-30T17:15:01.699Z,1.48
2023-11-30T17:18:04.799Z,1.15
2023-11-30T17:21:06.811Z,2.80
2023-11-30T17:24:10.135Z,1.35
2023-11-30T17:28:13.166Z,2.30
2023-11-30T17:31:15.072Z,1.73
2023-11-30T17:34:16.996Z,1.60
2023-11-30T17:37:18.960Z,1.38
2023-11-30T17:40:21.136Z,1.73
2023-11-30T17:43:22.906Z,1.92
2023-11-30T17:46:24.844Z,1.55
2023-11-30T17:49:27.073Z,2.28
2023-11-30T17:52:29.713Z,1.98
2023-11-30T17:55:33.696Z,1.40
2023-11-30T17:58:37.545Z,1.98
2023-11-30T18:04:41.090Z,2.05
2023-11-30T18:07:45.957Z,3.00
2023-11-30T18:10:49.229Z,1.98
2023-11-30T18:13:50.998Z,2.58
2023-11-30T18:17:11.429Z,1.33
2023-11-30T18:20:13.239Z,1.77
2023-11-30T18:23:15.205Z,1.38
2023-11-30T18:27:14.879Z,2.58
2023-11-30T18:30:16.704Z,2.25
2023-11-30T18:33:18.683Z,2.05
2023-11-30T18:36:39.178Z,2.97
2023-11-30T18:39:40.998Z,2.67
2023-11-30T18:42:43.532Z,2.67
2023-11-30T18:45:45.731Z,2.15
2023-11-30T18:48:48.745Z,2.28
2023-11-30T18:51:50.522Z,3.33
2023-11-30T18:54:54.371Z,3.17
2023-11-30T18:57:56.629Z,3.97
2023-11-30T19:00:58.452Z,2.65
2023-11-30T19:04:00.431Z,1.70
2023-11-30T19:07:02.464Z,3.03
2023-11-30T19:10:04.747Z,2.55
2023-11-30T19:13:06.641Z,1.85
2023-11-30T19:16:11.429Z,1.95
2023-11-30T19:19:13.352Z,1.85
2023-11-30T19:22:15.249Z,2.35
2023-11-30T19:25:17.020Z,2.58
2023-11-30T19:28:19.103Z,2.47
2023-11-30T19:31:20.923Z,3.17
2023-11-30T19:34:22.767Z,1.70
2023-11-30T19:37:24.700Z,2.78
2023-11-30T19:40:26.489Z,1.95
2023-11-30T19:43:28.194Z,1.92
2023-11-30T19:46:30.380Z,3.38
2023-11-30T19:49:32.433Z,2.92
2023-11-30T19:52:36.302Z,3.28
2023-11-30T19:55:38.885Z,2.75
2023-11-30T19:58:44.709Z,3.47
2023-11-30T20:01:46.528Z,2.13
2023-11-30T20:04:48.270Z,2.15
2023-11-30T20:07:50.090Z,1.90
2023-11-30T20:10:52.778Z,2.88
2023-11-30T20:13:54.580Z,2.28
2023-11-30T20:16:56.749Z,3.08
2023-11-30T20:19:58.467Z,2.90
2023-11-30T20:23:01.453Z,2.92
2023-11-30T20:26:03.451Z,2.78
2023-11-30T20:29:05.167Z,2.65
2023-11-30T20:32:07.127Z,3.72
2023-11-30T20:35:09.337Z,3.47
2023-11-30T20:38:11.379Z,3.38
2023-11-30T20:41:13.129Z,2.50
2023-11-30T20:44:14.872Z,4.15
2023-11-30T20:47:16.801Z,4.40
2023-11-30T20:50:18.677Z,2.38
2023-11-30T20:53:20.457Z,1.40
2023-11-30T20:56:23.199Z,2.58
2023-11-30T20:59:27.173Z,2.53
2023-11-30T21:02:29.109Z,2.75
2023-11-30T21:05:30.951Z,2.78
2023-11-30T21:08:33.914Z,2.47
2023-11-30T21:11:39.739Z,1.33
2023-11-30T21:14:41.439Z,2.58
2023-11-30T21:17:43.461Z,2.97
2023-11-30T21:20:45.276Z,2.38
2023-11-30T21:23:47.062Z,2.90
2023-11-30T21:26:49.005Z,2.70
2023-11-30T21:29:50.823Z,2.33
2023-11-30T21:32:52.679Z,3.05
2023-11-30T21:35:54.472Z,2.60
2023-11-30T21:38:56.582Z,6.32
2023-11-30T21:41:58.750Z,3.33
2023-11-30T21:45:02.148Z,2.65
2023-11-30T21:48:04.621Z,1.98
2023-11-30T21:51:06.644Z,3.55
2023-11-30T21:54:08.570Z,2.63
2023-11-30T21:57:10.621Z,2.70
2023-11-30T22:00:13.325Z,2.33
2023-11-30T22:03:18.484Z,3.05
2023-11-30T22:06:20.522Z,2.75
2023-11-30T22:09:22.291Z,2.22
2023-11-30T22:12:24.120Z,3.17
2023-11-30T22:15:25.866Z,2.88
2023-11-30T22:18:30.585Z,2.35
2023-11-30T22:21:33.367Z,2.85
2023-11-30T22:24:35.226Z,1.77
2023-11-30T22:27:37.129Z,3.13
2023-11-30T22:30:38.916Z,2.90
2023-11-30T22:33:40.701Z,2.67
2023-11-30T22:36:45.924Z,2.22
2023-11-30T22:39:47.693Z,1.98
2023-11-30T22:42:49.535Z,2.63
2023-11-30T22:45:51.338Z,4.05
2023-11-30T22:48:53.325Z,2.25
2023-11-30T22:51:56.516Z,1.92
2023-11-30T22:54:58.386Z,2.10
2023-11-30T22:58:00.694Z,3.28
2023-11-30T23:01:02.578Z,2.28
2023-11-30T23:04:04.646Z,1.23
2023-11-30T23:07:07.645Z,2.22
2023-11-30T23:10:13.130Z,2.05
2023-11-30T23:13:14.850Z,1.38
2023-11-30T23:16:17.019Z,2.63
2023-11-30T23:19:18.862Z,2.38
2023-11-30T23:22:20.690Z,1.48
2023-11-30T23:25:22.410Z,1.50
2023-11-30T23:28:24.987Z,1.80
2023-11-30T23:31:26.844Z,1.67
2023-11-30T23:34:28.631Z,1.60
2023-11-30T23:37:30.827Z,2.28
2023-11-30T23:40:32.858Z,2.40
2023-11-30T23:43:34.672Z,2.25
2023-11-30T23:46:36.636Z,1.48
2023-11-30T23:49:38.753Z,1.77
2023-11-30T23:52:40.643Z,2.03
2023-11-30T23:55:42.697Z,1.30
2023-11-30T23:58:44.715Z,1.77
